Time;durP1;ratioP1;P1;durP2;ratioP2;P2;SDS_P1;SDS_P2;PMS_P1;PMS_P2;Temp;Humidity;BMP_temperature;BMP_pressure;BME280_temperature;BME280_humidity;BME280_pressure;Samples;Min_cycle;Max_cycle;Signal;HPM_P1;HPM_P2
2023/08/29 00:02:24;;;;;;;2.90;2.70;;;22.00;66.10;23.30;100322.00;;;;5034339;28;20196;-57
2023/08/29 00:04:49;;;;;;;3.40;3.00;;;21.90;66.40;23.30;100320.00;;;;5034518;28;20179;-56
2023/08/29 00:07:15;;;;;;;2.73;2.53;;;21.90;66.30;23.20;100320.00;;;;5034466;28;20273;-56
2023/08/29 00:09:41;;;;;;;2.97;2.70;;;22.00;66.50;23.20;100323.00;;;;5034662;28;20207;-57
2023/08/29 00:12:07;;;;;;;3.93;2.60;;;22.00;66.40;23.20;100318.00;;;;5034545;28;20621;-56
2023/08/29 00:14:32;;;;;;;3.30;2.60;;;22.00;66.20;23.10;100330.00;;;;5034487;28;20720;-56
2023/08/29 00:16:58;;;;;;;2.70;2.50;;;22.00;66.20;23.10;100318.00;;;;5034524;28;20218;-56
2023/08/29 00:19:24;;;;;;;3.10;2.90;;;22.10;66.30;23.10;100310.00;;;;5039817;28;20673;-57
2023/08/29 00:21:51;;;;;;;3.00;2.70;;;22.00;66.10;23.10;100320.00;;;;5029305;28;20537;-57
2023/08/29 00:24:17;;;;;;;3.17;2.87;;;22.00;66.10;23.10;100333.00;;;;5034512;28;20568;-57
2023/08/29 00:26:43;;;;;;;3.23;2.90;;;22.00;66.50;23.10;100314.00;;;;5034383;28;20293;-57
2023/08/29 00:29:09;;;;;;;3.80;3.00;;;22.00;66.50;23.10;100316.00;;;;5033858;28;20183;-57
2023/08/29 00:31:35;;;;;;;3.03;2.83;;;22.00;66.50;23.10;100322.00;;;;5034245;28;20186;-56
2023/08/29 00:34:01;;;;;;;2.80;2.60;;;22.00;66.50;23.10;100323.00;;;;5034096;28;20211;-56
2023/08/29 00:36:26;;;;;;;3.13;2.83;;;22.00;66.50;23.10;100325.00;;;;5033905;28;20179;-57
2023/08/29 00:38:52;;;;;;;3.27;2.93;;;21.90;66.20;23.10;100344.00;;;;5033838;28;20183;-56
2023/08/29 00:41:18;;;;;;;2.93;2.50;;;21.90;66.30;23.00;100346.00;;;;5033874;28;20207;-57
2023/08/29 00:43:44;;;;;;;2.70;2.50;;;22.00;66.40;23.00;100336.00;;;;5034018;28;20289;-56
2023/08/29 00:46:09;;;;;;;2.80;2.57;;;22.00;66.40;23.00;100335.00;;;;5033968;28;20233;-57
2023/08/29 00:48:35;;;;;;;2.70;2.50;;;21.90;66.30;23.00;100335.00;;;;5033916;28;20209;-57
2023/08/29 00:51:01;;;;;;;3.00;2.70;;;21.90;66.30;23.00;100341.00;;;;5031848;28;20211;-57
2023/08/29 00:53:26;;;;;;;2.70;2.50;;;21.90;66.30;23.00;100344.00;;;;5009426;28;20242;-57
2023/08/29 00:55:52;;;;;;;3.07;2.77;;;21.90;66.40;23.00;100337.00;;;;5027075;28;20188;-57
2023/08/29 00:58:18;;;;;;;3.20;2.90;;;21.90;66.00;23.00;100316.00;;;;5030838;28;20827;-57
2023/08/29 01:00:44;;;;;;;3.43;2.90;;;21.90;66.20;23.00;100324.00;;;;5030684;28;20219;-57
2023/08/29 01:03:10;;;;;;;2.77;2.57;;;21.60;66.80;22.90;100335.00;;;;5012854;28;20203;-57
2023/08/29 01:05:36;;;;;;;2.90;2.60;;;21.70;66.90;22.90;100330.00;;;;5030823;28;20182;-57
2023/08/29 01:08:02;;;;;;;2.80;2.60;;;21.80;66.80;22.90;100319.00;;;;5022361;28;20534;-56
2023/08/29 01:11:03;;;;;;;3.13;2.60;;;21.80;66.50;22.80;100333.00;;;;5030406;28;20213;-56
2023/08/29 01:13:53;;;;;;;3.10;2.80;;;21.80;66.50;22.60;100326.00;;;;5014832;28;20185;-57
2023/08/29 01:16:21;;;;;;;2.97;2.70;;;21.80;66.20;22.80;100340.00;;;;5032641;28;20167;-56
2023/08/29 01:18:48;;;;;;;3.03;2.73;;;21.80;66.20;22.70;100340.00;;;;5022077;28;20681;-56
2023/08/29 01:21:28;;;;;;;3.10;2.90;;;21.80;66.40;22.70;100338.00;;;;5005417;28;20694;-57
2023/08/29 01:24:05;;;;;;;2.90;2.70;;;21.80;66.20;22.70;100340.00;;;;5030909;28;20635;-57
2023/08/29 01:26:31;;;;;;;2.90;2.70;;;21.80;66.20;22.70;100355.00;;;;5015157;28;20182;-57
2023/08/29 01:28:57;;;;;;;2.73;2.53;;;21.80;66.10;22.70;100354.00;;;;5018265;28;20273;-56
2023/08/29 01:31:22;;;;;;;2.70;2.50;;;21.80;66.30;22.70;100373.00;;;;5020157;28;20281;-58
2023/08/29 01:33:48;;;;;;;2.70;2.50;;;21.80;66.50;22.70;100370.00;;;;5013743;28;20186;-56
2023/08/29 01:36:14;;;;;;;2.80;2.60;;;21.70;66.40;22.70;100370.00;;;;5008688;28;20198;-57
2023/08/29 01:38:39;;;;;;;3.07;2.77;;;21.60;66.30;22.60;100370.00;;;;5017281;28;20203;-56
2023/08/29 01:41:05;;;;;;;3.00;2.70;;;21.70;66.50;22.60;100379.00;;;;5029743;28;20685;-56
2023/08/29 01:43:31;;;;;;;2.93;2.73;;;21.70;66.60;22.60;100376.00;;;;5030128;28;20649;-57
2023/08/29 01:45:57;;;;;;;2.90;2.50;;;21.60;66.50;22.60;100373.00;;;;5029851;28;20271;-57
2023/08/29 01:48:22;;;;;;;3.00;2.80;;;21.60;66.60;22.60;100379.00;;;;5029569;28;20183;-56
2023/08/29 01:50:48;;;;;;;2.77;2.57;;;21.60;66.70;22.60;100392.00;;;;5011766;28;20217;-58
2023/08/29 01:53:14;;;;;;;2.83;2.63;;;21.70;66.60;22.60;100396.00;;;;5012081;28;20562;-56
2023/08/29 01:55:40;;;;;;;2.93;2.73;;;21.70;66.40;22.60;100404.00;;;;5011974;28;20191;-56
2023/08/29 01:58:05;;;;;;;3.03;2.73;;;21.70;66.40;22.60;100400.00;;;;5012103;28;20249;-57
2023/08/29 02:00:31;;;;;;;2.90;2.70;;;21.70;66.60;22.60;100398.00;;;;5011753;28;20222;-55
2023/08/29 02:02:57;;;;;;;3.73;2.90;;;21.70;66.40;22.60;100407.00;;;;5011512;28;20207;-57
2023/08/29 02:05:23;;;;;;;3.67;2.73;;;21.60;66.70;22.60;100416.00;;;;5005822;28;20251;-57
2023/08/29 02:07:50;;;;;;;2.70;2.50;;;21.60;66.80;22.60;100404.00;;;;5010249;28;20195;-56
2023/08/29 02:10:15;;;;;;;2.97;2.77;;;21.60;66.80;22.60;100407.00;;;;5019208;28;20207;-56
2023/08/29 02:12:41;;;;;;;3.63;2.80;;;21.60;66.70;22.60;100404.00;;;;5009996;28;20620;-57
2023/08/29 02:15:08;;;;;;;2.80;2.60;;;21.60;66.80;22.60;100412.00;;;;5026242;28;20196;-56
2023/08/29 02:17:34;;;;;;;3.10;2.80;;;21.60;66.60;22.50;100417.00;;;;5016115;28;20211;-56
2023/08/29 02:20:00;;;;;;;3.20;2.90;;;21.60;66.80;22.50;100414.00;;;;5028715;28;20252;-56
2023/08/29 02:22:25;;;;;;;2.90;2.70;;;21.60;66.80;22.50;100409.00;;;;5015821;28;20187;-56
2023/08/29 02:24:51;;;;;;;2.83;2.63;;;21.60;66.90;22.50;100405.00;;;;5026471;28;20716;-56
2023/08/29 02:27:17;;;;;;;2.90;2.70;;;21.50;67.00;22.50;100407.00;;;;5029172;28;20183;-56
2023/08/29 02:29:42;;;;;;;3.47;2.97;;;21.50;67.00;22.50;100411.00;;;;5028738;28;20218;-56
2023/08/29 02:32:08;;;;;;;3.00;2.80;;;21.50;66.90;22.50;100396.00;;;;5008054;28;20184;-57
2023/08/29 02:34:34;;;;;;;3.10;2.80;;;21.50;66.80;22.50;100395.00;;;;5024016;28;20562;-58
2023/08/29 02:37:00;;;;;;;2.93;2.73;;;21.50;66.70;22.40;100393.00;;;;5029017;28;20203;-57
2023/08/29 02:39:25;;;;;;;4.27;3.87;;;21.50;66.80;22.50;100389.00;;;;5028995;28;20235;-58
2023/08/29 02:41:51;;;;;;;3.43;3.13;;;21.60;66.80;22.50;100392.00;;;;5028920;28;20255;-56
2023/08/29 02:44:17;;;;;;;3.60;3.30;;;21.60;66.60;22.50;100400.00;;;;5028918;28;20182;-56
2023/08/29 02:46:43;;;;;;;3.53;3.23;;;21.60;66.80;22.50;100393.00;;;;5002761;28;20529;-56
2023/08/29 02:49:08;;;;;;;2.80;2.60;;;21.60;66.70;22.50;100381.00;;;;5016490;28;20183;-57
2023/08/29 02:51:34;;;;;;;3.17;2.80;;;21.50;66.80;22.50;100378.00;;;;5016827;28;20207;-55
2023/08/29 02:54:00;;;;;;;3.00;2.80;;;21.50;66.80;22.40;100365.00;;;;5006056;28;20183;-56
2023/08/29 02:56:25;;;;;;;2.97;2.77;;;21.50;67.40;22.40;100381.00;;;;4999925;28;20179;-56
2023/08/29 02:58:52;;;;;;;2.80;2.60;;;21.50;66.60;22.40;100376.00;;;;5028246;28;20202;-57
2023/08/29 03:01:17;;;;;;;3.13;2.83;;;21.50;66.80;22.40;100369.00;;;;5028594;28;20219;-55
2023/08/29 03:03:43;;;;;;;2.90;2.70;;;21.40;66.60;22.40;100360.00;;;;5029907;28;20249;-57
2023/08/29 03:06:09;;;;;;;3.00;2.80;;;21.40;66.70;22.40;100359.00;;;;5029817;28;20178;-57
2023/08/29 03:08:35;;;;;;;3.60;3.30;;;21.40;66.60;22.40;100349.00;;;;5029852;28;20225;-57
2023/08/29 03:11:03;;;;;;;3.70;3.00;;;21.50;66.80;22.40;100345.00;;;;5029834;28;20568;-58
2023/08/29 03:13:30;;;;;;;2.90;2.70;;;21.50;66.50;22.30;100341.00;;;;5030233;28;20190;-57
2023/08/29 03:15:55;;;;;;;2.90;2.70;;;21.40;66.60;22.30;100330.00;;;;5051292;28;20183;-57
2023/08/29 03:18:21;;;;;;;3.17;2.90;;;21.40;66.60;22.30;100336.00;;;;5036803;28;20652;-56
2023/08/29 03:20:47;;;;;;;4.80;2.90;;;21.40;66.70;22.30;100319.00;;;;5021878;28;20199;-56
2023/08/29 03:23:13;;;;;;;3.30;2.80;;;21.40;67.00;22.30;100336.00;;;;4982271;28;20176;-57
2023/08/29 03:25:38;;;;;;;3.73;2.97;;;21.30;67.70;22.30;100335.00;;;;5022224;28;20181;-57
2023/08/29 03:28:05;;;;;;;2.97;2.77;;;21.30;67.60;22.20;100339.00;;;;5031523;28;20183;-58
2023/08/29 03:30:30;;;;;;;3.23;2.93;;;21.30;67.50;22.20;100322.00;;;;5052478;28;20228;-57
2023/08/29 03:32:56;;;;;;;3.50;3.20;;;21.30;67.20;22.20;100320.00;;;;5033219;28;20191;-56
2023/08/29 03:35:23;;;;;;;3.20;2.90;;;21.30;66.90;22.20;100316.00;;;;5029431;28;20190;-57
2023/08/29 03:37:48;;;;;;;3.43;3.00;;;21.30;66.90;22.20;100307.00;;;;5020630;28;20207;-57
2023/08/29 03:40:14;;;;;;;3.20;2.80;;;21.30;66.90;22.20;100306.00;;;;5013050;28;20677;-57
2023/08/29 03:42:40;;;;;;;3.73;3.27;;;21.30;67.20;22.20;100307.00;;;;5029531;28;20179;-57
2023/08/29 03:45:07;;;;;;;3.37;3.07;;;21.30;67.00;22.20;100308.00;;;;5029307;28;20187;-57
2023/08/29 03:47:33;;;;;;;3.20;2.90;;;21.30;67.00;22.20;100302.00;;;;5029711;28;20555;-56
2023/08/29 03:49:59;;;;;;;4.07;3.73;;;21.30;67.10;22.20;100304.00;;;;5029387;28;20207;-57
2023/08/29 03:52:28;;;;;;;4.57;3.40;;;21.30;67.20;22.20;100298.00;;;;5029532;28;20183;-57
2023/08/29 03:54:57;;;;;;;3.93;3.63;;;21.30;67.40;22.20;100298.00;;;;5029533;28;20214;-57
2023/08/29 03:57:23;;;;;;;3.47;3.17;;;21.20;67.20;22.20;100238.00;;;;5029613;28;20578;-56
2023/08/29 03:59:49;;;;;;;2.93;2.73;;;21.20;67.30;22.10;100308.00;;;;5029275;28;20194;-57
2023/08/29 04:02:14;;;;;;;3.07;2.87;;;21.10;67.50;22.10;100307.00;;;;5028537;28;20198;-57
2023/08/29 04:04:43;;;;;;;3.27;2.97;;;21.10;67.50;22.10;100308.00;;;;5029059;28;20185;-57
2023/08/29 04:07:12;;;;;;;3.30;3.00;;;21.10;67.50;22.10;100312.00;;;;5019886;28;20266;-58
2023/08/29 04:09:41;;;;;;;3.60;3.30;;;21.20;67.30;22.10;100286.00;;;;5024032;28;20222;-58
2023/08/29 04:12:10;;;;;;;3.73;3.33;;;21.20;67.20;22.10;100308.00;;;;5028754;28;20297;-57
2023/08/29 04:14:36;;;;;;;3.50;3.20;;;21.20;66.90;22.10;100312.00;;;;5035287;28;20175;-57
2023/08/29 04:17:03;;;;;;;3.30;2.83;;;21.20;66.80;22.00;100307.00;;;;5034539;28;20213;-57
2023/08/29 04:19:29;;;;;;;3.40;2.90;;;21.20;67.20;22.00;100317.00;;;;5028607;28;20202;-57
2023/08/29 04:21:56;;;;;;;5.93;3.00;;;21.20;67.00;22.00;100315.00;;;;5026007;28;20194;-57
2023/08/29 04:24:22;;;;;;;3.60;2.77;;;21.10;67.30;22.00;100313.00;;;;5026464;28;20783;-57
2023/08/29 04:26:47;;;;;;;3.10;2.80;;;21.10;67.70;22.00;100315.00;;;;5022976;28;20183;-56
2023/08/29 04:29:13;;;;;;;4.87;3.83;;;21.10;67.50;22.00;100309.00;;;;5031897;28;20183;-58
2023/08/29 04:31:39;;;;;;;3.33;3.07;;;21.10;67.20;21.90;100318.00;;;;5032062;28;20178;-57
2023/08/29 04:34:04;;;;;;;3.53;2.93;;;21.10;66.90;21.90;100312.00;;;;5032045;28;20245;-57
2023/08/29 04:36:30;;;;;;;4.00;3.60;;;21.10;66.90;21.90;100314.00;;;;5032207;28;20724;-56
2023/08/29 04:38:56;;;;;;;3.57;3.13;;;21.10;67.00;21.90;100313.00;;;;5032011;28;20229;-55
2023/08/29 04:41:22;;;;;;;3.30;3.00;;;21.10;66.90;21.90;100291.00;;;;5032623;28;20265;-56
2023/08/29 04:43:48;;;;;;;3.30;2.93;;;21.10;67.30;21.90;100300.00;;;;5014375;28;20241;-56
2023/08/29 04:46:13;;;;;;;4.77;2.90;;;21.10;67.30;21.90;100307.00;;;;5032185;28;20183;-56
2023/08/29 04:48:39;;;;;;;3.40;3.10;;;21.00;67.40;21.90;100306.00;;;;5030943;28;20183;-55
2023/08/29 04:51:05;;;;;;;3.50;3.20;;;21.10;67.30;21.90;100294.00;;;;5031589;28;20637;-56
2023/08/29 04:53:32;;;;;;;3.83;3.43;;;21.10;67.00;21.80;100308.00;;;;5013864;28;20237;-56
2023/08/29 04:56:02;;;;;;;3.80;3.40;;;21.10;66.90;21.80;100300.00;;;;5031810;28;20210;-56
2023/08/29 04:58:28;;;;;;;4.20;3.00;;;21.10;67.00;21.80;100313.00;;;;5031793;28;20206;-56
2023/08/29 05:00:54;;;;;;;4.13;3.10;;;20.90;67.30;21.60;100316.00;;;;5031515;28;20294;-56
2023/08/29 05:03:21;;;;;;;4.23;3.40;;;21.00;67.10;21.80;100303.00;;;;5031578;28;20179;-56
2023/08/29 05:05:47;;;;;;;3.30;3.00;;;21.00;66.80;21.80;100308.00;;;;5031802;28;20183;-56
2023/08/29 05:08:12;;;;;;;3.00;2.70;;;21.00;66.60;21.80;100304.00;;;;5031371;28;20201;-57
2023/08/29 05:10:38;;;;;;;3.40;3.10;;;21.00;67.00;21.70;100304.00;;;;5031452;28;20210;-56
2023/08/29 05:13:04;;;;;;;4.10;3.00;;;20.90;66.80;21.70;100305.00;;;;5026344;28;20186;-58
2023/08/29 05:15:31;;;;;;;4.60;3.03;;;20.90;67.10;21.70;100319.00;;;;5055451;28;20175;-56
2023/08/29 05:17:57;;;;;;;3.13;2.83;;;20.80;67.00;21.70;100314.00;;;;5031555;28;20290;-56
2023/08/29 05:20:23;;;;;;;3.63;3.10;;;20.90;67.10;21.70;100314.00;;;;5029048;28;20242;-56
2023/08/29 05:22:49;;;;;;;2.80;2.60;;;20.90;67.40;21.60;100311.00;;;;5031191;28;20179;-56
2023/08/29 05:25:14;;;;;;;2.90;2.67;;;20.80;67.40;21.60;100316.00;;;;5013894;28;20671;-56
2023/08/29 05:27:40;;;;;;;2.80;2.60;;;20.80;67.50;21.60;100317.00;;;;5033935;28;20202;-56
2023/08/29 05:30:07;;;;;;;3.00;2.80;;;20.80;67.50;21.60;100316.00;;;;5047562;28;20199;-55
2023/08/29 05:32:33;;;;;;;3.50;2.87;;;20.70;67.40;21.60;100313.00;;;;5023555;28;20253;-56
2023/08/29 05:34:59;;;;;;;3.07;2.70;;;20.80;67.60;21.60;100312.00;;;;5031298;28;20178;-55
2023/08/29 05:37:24;;;;;;;3.03;2.80;;;20.70;67.40;21.60;100314.00;;;;5030966;28;20202;-55
2023/08/29 05:39:50;;;;;;;3.00;2.80;;;20.70;67.50;21.60;100321.00;;;;5012338;28;20211;-56
2023/08/29 05:42:16;;;;;;;2.90;2.60;;;20.70;67.50;21.60;100322.00;;;;5022331;28;20806;-56
2023/08/29 05:44:42;;;;;;;4.00;3.60;;;20.70;67.50;21.60;100323.00;;;;5022688;28;20183;-55
2023/08/29 05:47:08;;;;;;;3.77;3.47;;;20.80;67.40;21.60;100321.00;;;;5030542;28;20183;-56
2023/08/29 05:49:34;;;;;;;4.60;3.47;;;20.80;66.90;21.60;100332.00;;;;5030797;28;20203;-56
2023/08/29 05:52:00;;;;;;;3.33;3.03;;;20.80;66.80;21.60;100320.00;;;;5030153;28;20183;-56
2023/08/29 05:54:25;;;;;;;3.13;2.67;;;20.90;67.10;21.60;100326.00;;;;5030771;28;20214;-56
2023/08/29 05:56:51;;;;;;;3.40;2.63;;;20.80;67.40;21.50;100319.00;;;;5030886;28;20570;-56
2023/08/29 05:59:17;;;;;;;3.20;3.00;;;20.70;67.40;21.50;100306.00;;;;5030222;28;20789;-56
2023/08/29 06:01:43;;;;;;;3.30;3.00;;;20.70;67.40;21.60;100301.00;;;;5030055;28;20194;-56
2023/08/29 06:04:08;;;;;;;4.63;3.83;;;20.80;67.10;21.60;100314.00;;;;5029239;28;20183;-55
2023/08/29 06:06:35;;;;;;;3.57;3.27;;;20.80;67.00;21.50;100312.00;;;;5022584;28;20686;-56
2023/08/29 06:09:02;;;;;;;4.07;3.43;;;20.90;66.90;21.60;100318.00;;;;5025827;28;20675;-56
2023/08/29 06:11:29;;;;;;;5.63;3.70;;;20.80;67.10;21.60;100320.00;;;;5022910;28;20285;-56
2023/08/29 06:13:55;;;;;;;3.33;3.10;;;20.80;66.90;21.60;100322.00;;;;5027854;28;20186;-56
2023/08/29 06:16:20;;;;;;;5.00;3.90;;;20.90;66.70;21.50;100330.00;;;;5030070;28;20306;-56
2023/08/29 06:18:47;;;;;;;4.37;3.80;;;20.80;67.00;21.50;100317.00;;;;5029729;28;20210;-57
2023/08/29 06:21:13;;;;;;;3.97;3.60;;;20.80;67.10;21.50;100308.00;;;;5027429;28;20337;-56
2023/08/29 06:23:38;;;;;;;4.20;3.80;;;20.80;67.10;21.50;100320.00;;;;5029780;28;20820;-56
2023/08/29 06:26:04;;;;;;;4.13;3.83;;;20.80;67.50;21.50;100323.00;;;;5029511;28;20959;-56
2023/08/29 06:28:31;;;;;;;4.03;3.60;;;20.50;67.80;21.50;100326.00;;;;5029725;28;20261;-56
2023/08/29 06:31:02;;;;;;;4.73;3.73;;;20.40;68.90;21.50;100338.00;;;;5029968;28;20206;-55
2023/08/29 06:33:28;;;;;;;3.60;3.30;;;20.40;68.60;21.40;100335.00;;;;5012862;28;20649;-55
2023/08/29 06:35:54;;;;;;;3.63;3.33;;;20.40;68.50;21.40;100336.00;;;;5020679;28;20189;-56
2023/08/29 06:38:19;;;;;;;3.27;3.00;;;20.40;68.40;21.30;100335.00;;;;5014091;28;20294;-56
2023/08/29 06:40:45;;;;;;;4.73;4.33;;;20.40;68.40;21.30;100336.00;;;;5022051;28;20204;-55
2023/08/29 06:43:11;;;;;;;4.80;4.40;;;20.60;68.50;21.40;100323.00;;;;4990878;28;20194;-56
2023/08/29 06:45:37;;;;;;;3.97;3.60;;;20.50;68.60;21.40;100324.00;;;;5030236;28;20262;-56
2023/08/29 06:48:04;;;;;;;3.53;3.23;;;20.50;68.40;21.40;100323.00;;;;5029646;28;20194;-56
2023/08/29 06:50:30;;;;;;;3.80;3.40;;;20.60;68.20;21.30;100342.00;;;;5028989;28;20203;-56
2023/08/29 06:52:56;;;;;;;3.87;3.50;;;20.60;68.20;21.40;100330.00;;;;5028533;28;20189;-56
2023/08/29 06:55:21;;;;;;;4.03;3.40;;;20.60;68.20;21.40;100335.00;;;;5029879;28;20569;-54
2023/08/29 06:57:47;;;;;;;5.70;3.53;;;20.60;68.40;21.40;100341.00;;;;5029311;28;20206;-56
2023/08/29 07:00:13;;;;;;;4.70;3.70;;;20.50;68.50;21.40;100338.00;;;;5028797;28;20203;-55
2023/08/29 07:02:39;;;;;;;4.40;3.50;;;20.50;68.40;21.40;100336.00;;;;5028779;28;20178;-56
2023/08/29 07:05:05;;;;;;;3.77;3.43;;;20.50;68.50;21.40;100336.00;;;;5028775;28;20185;-58
2023/08/29 07:07:31;;;;;;;5.87;4.90;;;20.60;68.50;21.40;100325.00;;;;5028808;28;20210;-57
2023/08/29 07:09:56;;;;;;;6.93;5.73;;;20.60;69.10;21.50;100338.00;;;;5026856;28;20210;-57
2023/08/29 07:12:22;;;;;;;7.53;5.77;;;20.50;69.40;21.50;100336.00;;;;5038074;28;20186;-58
2023/08/29 07:14:48;;;;;;;6.60;6.07;;;20.40;69.80;21.50;100330.00;;;;5041328;28;20194;-60
2023/08/29 07:17:14;;;;;;;6.60;5.97;;;20.40;70.80;21.40;100339.00;;;;5009843;28;20211;-57
2023/08/29 07:19:39;;;;;;;4.40;4.10;;;20.30;70.40;21.40;100339.00;;;;5016306;28;20612;-57
2023/08/29 07:22:05;;;;;;;5.53;5.03;;;20.30;69.70;21.40;100335.00;;;;5027626;28;20678;-57
2023/08/29 07:24:31;;;;;;;5.80;4.87;;;20.40;70.30;21.40;100335.00;;;;5019805;28;20178;-57
2023/08/29 07:26:57;;;;;;;5.90;5.40;;;20.40;70.30;21.40;100335.00;;;;5016949;28;20154;-58
2023/08/29 07:29:22;;;;;;;6.73;6.07;;;20.30;70.80;21.40;100333.00;;;;5026677;28;20695;-57
2023/08/29 07:31:48;;;;;;;6.07;5.37;;;20.30;71.30;21.40;100336.00;;;;5017613;28;20598;-57
2023/08/29 07:34:15;;;;;;;5.63;5.07;;;20.40;70.90;21.30;100339.00;;;;5008222;28;20526;-57
2023/08/29 07:36:41;;;;;;;6.70;6.00;;;20.40;70.40;21.30;100344.00;;;;5028615;28;20194;-58
2023/08/29 07:39:07;;;;;;;5.80;5.00;;;20.40;70.90;21.30;100335.00;;;;5028201;28;20218;-57
2023/08/29 07:41:32;;;;;;;6.50;5.90;;;20.40;70.30;21.30;100343.00;;;;5010657;28;20186;-57
2023/08/29 07:43:58;;;;;;;6.20;5.60;;;20.30;71.20;21.30;100345.00;;;;5026412;28;20179;-57
2023/08/29 07:46:24;;;;;;;6.90;5.70;;;20.30;71.30;21.30;100342.00;;;;5025760;28;20650;-57
2023/08/29 07:48:50;;;;;;;6.20;5.60;;;20.30;70.90;21.30;100347.00;;;;5028618;28;20186;-56
2023/08/29 07:51:16;;;;;;;7.00;6.40;;;20.30;71.00;21.30;100344.00;;;;5010979;28;20476;-57
2023/08/29 07:53:42;;;;;;;8.30;7.57;;;20.30;71.70;21.30;100340.00;;;;5022784;28;20425;-57
2023/08/29 07:56:07;;;;;;;5.63;5.17;;;20.20;72.10;21.30;100342.00;;;;5027956;28;20269;-57
2023/08/29 07:58:33;;;;;;;5.07;4.67;;;20.20;71.50;21.20;100349.00;;;;5017574;28;20201;-57
2023/08/29 08:01:01;;;;;;;5.70;5.13;;;20.20;71.10;21.30;100351.00;;;;5019143;28;20207;-57
2023/08/29 08:03:28;;;;;;;5.57;4.53;;;20.30;71.20;21.20;100346.00;;;;5014033;28;20171;-58
2023/08/29 08:05:55;;;;;;;8.87;8.17;;;20.30;70.70;21.30;100355.00;;;;5027964;28;20209;-58
2023/08/29 08:08:20;;;;;;;6.33;5.73;;;20.30;71.50;21.30;100358.00;;;;5032768;28;20181;-57
2023/08/29 08:10:46;;;;;;;7.67;6.93;;;20.20;71.30;21.20;100353.00;;;;5032501;28;20734;-57
2023/08/29 08:13:12;;;;;;;5.30;4.80;;;20.10;71.20;21.20;100352.00;;;;5032330;28;20231;-57
2023/08/29 08:15:37;;;;;;;5.00;4.50;;;20.20;71.30;21.20;100350.00;;;;5032428;28;20194;-57
2023/08/29 08:18:03;;;;;;;5.60;5.10;;;20.20;71.00;21.20;100354.00;;;;5031810;28;20318;-57
2023/08/29 08:20:29;;;;;;;6.43;5.83;;;20.30;71.00;21.20;100358.00;;;;5031374;28;20191;-57
2023/08/29 08:22:55;;;;;;;5.27;4.77;;;20.30;71.00;21.20;100355.00;;;;5024772;28;20595;-57
2023/08/29 08:25:20;;;;;;;5.97;5.17;;;20.30;70.70;21.30;100356.00;;;;5031919;28;20182;-57
2023/08/29 08:27:46;;;;;;;4.50;4.10;;;20.30;70.60;21.20;100354.00;;;;5031786;28;20383;-57
2023/08/29 08:30:12;;;;;;;4.90;4.50;;;20.30;70.40;21.20;100354.00;;;;5030701;28;20701;-56
2023/08/29 08:32:37;;;;;;;4.03;3.60;;;20.30;70.90;21.20;100356.00;;;;5031316;28;20183;-57
2023/08/29 08:35:07;;;;;;;4.63;3.60;;;20.30;70.70;21.20;100362.00;;;;5025945;28;20195;-57
2023/08/29 08:37:33;;;;;;;3.50;3.20;;;20.40;71.10;21.20;100367.00;;;;5031388;28;20214;-57
2023/08/29 08:40:00;;;;;;;5.30;3.50;;;20.40;70.70;21.20;100368.00;;;;5031447;28;20616;-56
2023/08/29 08:42:27;;;;;;;3.70;3.10;;;20.30;70.70;21.30;100371.00;;;;5028902;28;20233;-56
2023/08/29 08:44:53;;;;;;;3.00;2.80;;;20.40;70.70;21.30;100368.00;;;;5009474;28;20194;-57
2023/08/29 08:47:19;;;;;;;3.20;2.90;;;20.40;70.60;21.30;100364.00;;;;5025736;28;20197;-57
2023/08/29 08:49:44;;;;;;;4.17;2.97;;;20.40;70.60;21.30;100362.00;;;;5013627;28;20201;-56
2023/08/29 08:52:11;;;;;;;3.00;2.70;;;20.40;70.60;21.30;100362.00;;;;5008011;28;20185;-55
2023/08/29 08:54:38;;;;;;;3.00;2.70;;;20.40;70.70;21.30;100366.00;;;;5013764;28;20261;-55
2023/08/29 08:57:04;;;;;;;2.90;2.60;;;20.40;70.70;21.30;100368.00;;;;4997126;28;20614;-55
2023/08/29 08:59:30;;;;;;;3.70;2.80;;;20.40;70.60;21.30;100362.00;;;;5013745;28;20199;-57
2023/08/29 09:01:56;;;;;;;3.20;2.40;;;20.40;70.60;21.30;100364.00;;;;5030586;28;20264;-55
2023/08/29 09:04:22;;;;;;;3.17;2.70;;;20.40;70.60;21.40;100359.00;;;;5031463;28;20191;-56
2023/08/29 09:06:48;;;;;;;4.40;2.70;;;20.40;70.80;21.40;100352.00;;;;5003320;28;20197;-55
2023/08/29 09:09:19;;;;;;;3.30;2.67;;;20.50;70.90;21.40;100358.00;;;;5010915;28;20186;-56
2023/08/29 09:11:56;;;;;;;2.80;2.60;;;20.40;70.70;21.40;100361.00;;;;5017588;28;20188;-56
2023/08/29 09:14:22;;;;;;;6.23;2.63;;;20.50;70.80;21.40;100362.00;;;;5049325;28;20182;-55
2023/08/29 09:16:53;;;;;;;3.33;2.40;;;20.50;70.90;21.40;100368.00;;;;5019258;28;20176;-55
2023/08/29 09:19:19;;;;;;;2.60;2.40;;;20.50;70.90;21.40;100358.00;;;;5016823;28;20214;-55
2023/08/29 09:21:45;;;;;;;3.60;2.60;;;20.50;70.80;21.40;100361.00;;;;5011598;28;20172;-55
2023/08/29 09:24:12;;;;;;;4.33;2.50;;;20.40;70.70;21.40;100365.00;;;;5030433;28;20241;-55
2023/08/29 09:26:40;;;;;;;3.50;2.50;;;20.40;70.70;21.40;100363.00;;;;5039042;28;20194;-55
2023/08/29 09:29:19;;;;;;;4.77;2.43;;;20.50;70.70;21.40;100362.00;;;;5047571;28;20336;-56
2023/08/29 09:31:48;;;;;;;2.60;2.40;;;20.50;70.70;21.40;100364.00;;;;5031134;28;20185;-56
2023/08/29 09:34:29;;;;;;;3.30;2.60;;;20.50;70.70;21.40;100367.00;;;;5031797;28;20261;-56
2023/08/29 09:36:56;;;;;;;2.40;2.20;;;20.50;70.70;21.40;100369.00;;;;5030979;28;20186;-56
2023/08/29 09:39:22;;;;;;;2.63;2.30;;;20.50;70.70;21.40;100372.00;;;;5030536;28;20257;-56
2023/08/29 09:42:08;;;;;;;3.70;2.53;;;20.50;70.60;21.50;100373.00;;;;5013351;28;20629;-56
2023/08/29 09:44:36;;;;;;;3.23;2.47;;;20.50;70.60;21.50;100371.00;;;;5031028;28;20261;-56
2023/08/29 09:47:06;;;;;;;2.60;2.40;;;20.50;70.60;21.40;100377.00;;;;5030588;28;20544;-56
2023/08/29 09:49:43;;;;;;;3.13;2.30;;;20.50;70.60;21.50;100367.00;;;;5012762;28;20310;-55
2023/08/29 09:52:09;;;;;;;2.90;2.30;;;20.50;70.60;21.50;100368.00;;;;5030606;28;20737;-55
2023/08/29 09:54:35;;;;;;;2.47;2.27;;;20.50;70.60;21.50;100366.00;;;;5012948;28;20186;-56
2023/08/29 09:57:05;;;;;;;2.90;2.40;;;20.50;70.50;21.50;100364.00;;;;5029209;28;20179;-55
2023/08/29 09:59:31;;;;;;;2.60;2.40;;;20.50;70.50;21.50;100365.00;;;;5003563;28;20268;-55
2023/08/29 10:01:57;;;;;;;2.43;2.23;;;20.50;70.60;21.50;100351.00;;;;5026409;28;20186;-56
2023/08/29 10:04:22;;;;;;;2.53;2.33;;;20.60;70.70;21.50;100358.00;;;;4996374;28;20178;-56
2023/08/29 10:06:49;;;;;;;2.20;2.00;;;20.50;70.60;21.50;100349.00;;;;4996472;28;20186;-56
2023/08/29 10:09:14;;;;;;;2.43;2.23;;;20.50;70.60;21.50;100353.00;;;;5012412;28;20700;-56
2023/08/29 10:11:40;;;;;;;2.50;2.17;;;20.50;70.60;21.50;100341.00;;;;5009843;28;20178;-57
2023/08/29 10:14:06;;;;;;;2.90;2.40;;;20.60;70.70;21.50;100341.00;;;;4994521;28;20220;-56
2023/08/29 10:16:31;;;;;;;2.53;2.33;;;20.60;70.90;21.60;100351.00;;;;5016674;28;20187;-56
2023/08/29 10:18:57;;;;;;;2.50;2.30;;;20.60;70.90;21.60;100348.00;;;;5022835;28;20253;-56
2023/08/29 10:21:23;;;;;;;2.83;2.27;;;20.60;70.80;21.60;100342.00;;;;5013192;28;20250;-57
2023/08/29 10:23:49;;;;;;;3.40;2.37;;;20.60;71.00;21.60;100332.00;;;;5018674;28;20234;-56
2023/08/29 10:26:19;;;;;;;2.53;2.30;;;20.50;70.80;21.60;100345.00;;;;5008060;28;20194;-55
2023/08/29 10:28:45;;;;;;;2.70;1.90;;;20.60;70.90;21.60;100323.00;;;;5012480;28;20683;-56
2023/08/29 10:31:11;;;;;;;2.63;2.10;;;20.60;70.90;21.60;100351.00;;;;5009698;28;20203;-55
2023/08/29 10:33:37;;;;;;;2.47;2.10;;;20.60;70.90;21.60;100325.00;;;;5009791;28;20241;-56
2023/08/29 10:36:06;;;;;;;3.43;2.40;;;20.60;71.00;21.60;100336.00;;;;4994910;28;20663;-56
2023/08/29 10:38:31;;;;;;;2.57;2.37;;;20.60;71.00;21.60;100339.00;;;;5009211;28;20210;-56
2023/08/29 10:41:06;;;;;;;2.90;2.20;;;20.60;71.10;21.60;100342.00;;;;5008570;28;20248;-56
2023/08/29 10:43:32;;;;;;;3.47;2.43;;;20.60;71.00;21.60;100346.00;;;;5004652;28;20171;-55
2023/08/29 10:45:59;;;;;;;2.40;2.20;;;20.60;71.10;21.70;100346.00;;;;5018017;28;20183;-55